Airfield :
LOGIN :

Register | Disclaimer

   EN    FR    IT 

 










Legend :    VFR   Marginal VFR   IFR   Intensive IFR   Very Intensive IFR
Visi :
Ceiling :
>= 8 km
>= 3000ft
5 to 8 km
1000 to 3000 ft
1500m to 5 km
500 to 1000 ft
800 to 1500m
200 to 500 ft
< 800m
< 200 ft
Symbols :   Thunderstorms  Fog  Heavy snow  Heavy precipitations  Wind > 20 kt
SIGMETs :     Misc.  Thunderstorms  Icing  Turbulence  Mountain Waves  Volcanic Ashes






- Airport Elevation : 16 ft
- IATA code : SDR


LEXJ - Santander Cantabria

CURRENT METAR :
  • 281830Z 06005KT 030V110 CAVOK 13/08 Q1020

EXPIRED METARs :
  • 281800Z 05008KT 010V080 CAVOK 13/08 Q1020
  • 281730Z 05009KT 020V090 CAVOK 14/08 Q1019
  • 281700Z 05009KT 010V090 CAVOK 14/08 Q1019
  • 281630Z 05007KT 010V100 CAVOK 14/09 Q1019
  • 281600Z 05009KT 020V080 CAVOK 14/09 Q1019

TAF TAF LEXJ
Valid from the 28 at 15:00 until the 29 at 15:00 UTC


281400Z 2815/2915 05010KT CAVOK TX14/2912Z TN05/2906Z
BECMG 2818/2820 14005KT
BECMG 2911/2913 05010KT
TEMPO 2912/2915 06015G25KT
PROB30
TEMPO 2912/2915 RA SHRA SCT030TCU



MET'MAP, your aeronautical weather chart ! - Copyright ORBIFLY December 2007 - Disclaimer

ORBIFLY MET'MAP TEAM :

Programming & Development : Alexandra Zaïnal
Concept & original design : Baudouin d'Aumeries
Assistance for programming : Marc-Olivier Méhu
Technical & hardware support : Manuel Goepfert

Contact : metmap@orbifly.com




SOURCES & CREDITS :

   NOAA